createdAt,value
2019-03-08T00:01:31.094Z,29.43
2019-03-08T00:04:00.447Z,23.50
2019-03-08T00:06:33.260Z,22.17
2019-03-08T00:09:04.483Z,25.43
2019-03-08T00:11:34.005Z,21.70
2019-03-08T00:14:03.444Z,22.73
2019-03-08T00:16:32.885Z,23.73
2019-03-08T00:19:02.727Z,23.53
2019-03-08T00:21:32.493Z,28.97
2019-03-08T00:24:01.839Z,29.33
2019-03-08T00:26:31.489Z,30.03
2019-03-08T00:29:00.816Z,27.23
2019-03-08T00:31:30.335Z,29.00
2019-03-08T00:34:02.337Z,31.03
2019-03-08T00:36:31.825Z,31.43
2019-03-08T00:39:01.264Z,28.53
2019-03-08T00:41:30.717Z,27.10
2019-03-08T00:44:04.395Z,28.37
2019-03-08T00:46:34.765Z,27.00
2019-03-08T00:49:08.017Z,27.57
2019-03-08T00:51:38.149Z,26.67
2019-03-08T00:54:07.357Z,27.90
2019-03-08T00:56:36.772Z,27.27
2019-03-08T00:59:06.351Z,26.37
2019-03-08T01:01:35.832Z,25.80
2019-03-08T01:04:05.272Z,23.80
2019-03-08T01:06:34.797Z,22.03
2019-03-08T01:09:06.377Z,23.63
2019-03-08T01:11:36.334Z,22.73
2019-03-08T01:14:06.649Z,22.27
2019-03-08T01:16:42.731Z,23.20
2019-03-08T01:19:12.206Z,23.53
2019-03-08T01:21:43.770Z,22.60
2019-03-08T01:24:13.627Z,31.13
2019-03-08T01:26:43.173Z,25.37
2019-03-08T01:29:12.616Z,29.60
2019-03-08T01:31:42.163Z,23.97
2019-03-08T01:34:11.626Z,25.70
2019-03-08T01:36:41.177Z,25.67
2019-03-08T01:39:11.642Z,30.90
2019-03-08T01:41:41.030Z,28.30
2019-03-08T01:44:10.532Z,30.30
2019-03-08T01:46:40.008Z,29.93
2019-03-08T01:49:09.495Z,23.17
2019-03-08T01:51:38.990Z,22.77
2019-03-08T01:54:08.549Z,22.83
2019-03-08T01:56:38.011Z,21.20
2019-03-08T01:59:07.561Z,17.77
2019-03-08T02:01:37.122Z,21.00
2019-03-08T02:04:06.514Z,20.43
2019-03-08T02:06:36.027Z,19.00
2019-03-08T02:09:06.365Z,19.93
2019-03-08T02:11:35.863Z,18.30
2019-03-08T02:14:05.433Z,17.07
2019-03-08T02:16:34.885Z,18.87
2019-03-08T02:19:05.195Z,15.43
2019-03-08T02:21:34.682Z,15.47
2019-03-08T02:24:04.349Z,15.90
2019-03-08T02:26:33.773Z,15.57
2019-03-08T02:29:03.212Z,15.97
2019-03-08T02:31:33.463Z,15.37
2019-03-08T02:34:03.931Z,14.03
2019-03-08T02:36:33.459Z,19.27
2019-03-08T02:39:04.530Z,14.00
2019-03-08T02:41:34.066Z,15.30
2019-03-08T02:44:03.754Z,12.83
2019-03-08T02:46:35.184Z,13.57
2019-03-08T02:49:06.315Z,14.80
2019-03-08T02:51:36.118Z,14.53
2019-03-08T02:54:05.736Z,14.97
2019-03-08T02:56:35.025Z,13.03
2019-03-08T02:59:04.345Z,11.93
2019-03-08T03:01:33.857Z,17.03
2019-03-08T03:04:04.190Z,10.97
2019-03-08T03:06:35.633Z,14.73
2019-03-08T03:09:06.415Z,12.87
2019-03-08T03:11:35.873Z,14.00
2019-03-08T03:14:05.356Z,14.60
2019-03-08T03:16:34.900Z,11.27
2019-03-08T03:19:04.461Z,14.43
2019-03-08T03:21:33.997Z,14.67
2019-03-08T03:24:04.795Z,13.17
2019-03-08T03:26:35.353Z,12.73
2019-03-08T03:29:04.933Z,13.37
2019-03-08T03:31:35.229Z,12.70
2019-03-08T03:34:04.687Z,13.17
2019-03-08T03:36:35.023Z,12.10
2019-03-08T03:39:06.578Z,11.63
2019-03-08T03:41:35.806Z,13.37
2019-03-08T03:44:05.250Z,17.40
2019-03-08T03:46:34.719Z,17.47
2019-03-08T03:49:04.199Z,19.73
2019-03-08T03:51:34.180Z,14.20
2019-03-08T03:54:03.636Z,13.07
2019-03-08T03:56:33.386Z,13.07
2019-03-08T03:59:02.693Z,13.60
2019-03-08T04:01:33.854Z,14.33
2019-03-08T04:04:03.689Z,16.47
2019-03-08T04:06:33.382Z,15.00
2019-03-08T04:09:04.282Z,19.73
2019-03-08T04:11:33.823Z,18.23
2019-03-08T04:14:03.397Z,18.60
2019-03-08T04:16:32.971Z,22.27
2019-03-08T04:19:03.173Z,17.67
2019-03-08T04:21:32.735Z,16.10
2019-03-08T04:24:02.255Z,16.87
2019-03-08T04:26:31.723Z,15.83
2019-03-08T04:29:01.242Z,16.90
2019-03-08T04:31:31.340Z,16.90
2019-03-08T04:34:00.605Z,18.17
2019-03-08T04:36:30.400Z,18.50
2019-03-08T04:38:59.688Z,20.00
2019-03-08T04:41:29.161Z,16.63
2019-03-08T04:43:59.441Z,18.03
2019-03-08T04:46:28.966Z,11.80
2019-03-08T04:48:58.519Z,13.80
2019-03-08T04:51:28.319Z,12.10
2019-03-08T04:53:57.916Z,13.53
2019-03-08T04:56:27.439Z,12.47
2019-03-08T04:58:57.099Z,11.47
2019-03-08T05:01:26.468Z,15.27
2019-03-08T05:03:55.877Z,9.27
2019-03-08T05:06:25.650Z,13.37
2019-03-08T05:08:56.313Z,10.23
2019-03-08T05:11:25.631Z,9.63
2019-03-08T05:13:55.126Z,8.67
2019-03-08T05:16:24.326Z,10.10
2019-03-08T05:18:53.751Z,11.23
2019-03-08T05:21:22.917Z,10.63
2019-03-08T05:23:52.398Z,9.30
2019-03-08T05:26:22.330Z,8.57
2019-03-08T05:28:51.768Z,8.77
2019-03-08T05:31:21.336Z,11.10
2019-03-08T05:33:51.591Z,10.37
2019-03-08T05:36:20.762Z,8.97
2019-03-08T05:38:50.234Z,7.30
2019-03-08T05:41:19.791Z,8.67
2019-03-08T05:43:51.251Z,9.93
2019-03-08T05:46:21.646Z,9.00
2019-03-08T05:48:51.071Z,13.67
2019-03-08T05:51:20.238Z,9.83
2019-03-08T05:53:50.181Z,12.50
2019-03-08T05:56:22.060Z,12.37
2019-03-08T05:58:51.286Z,12.17
2019-03-08T06:01:20.730Z,12.20
2019-03-08T06:03:50.151Z,9.60
2019-03-08T06:06:19.654Z,11.03
2019-03-08T06:08:49.620Z,9.83
2019-03-08T06:11:19.086Z,9.30
2019-03-08T06:13:48.598Z,10.57
2019-03-08T06:16:18.968Z,9.07
2019-03-08T06:18:48.470Z,10.20
2019-03-08T06:21:17.909Z,7.27
2019-03-08T06:23:47.098Z,6.20
2019-03-08T06:26:16.523Z,7.03
2019-03-08T06:28:46.039Z,8.63
2019-03-08T06:31:16.511Z,12.97
2019-03-08T06:33:45.865Z,11.23
2019-03-08T06:36:15.382Z,11.90
2019-03-08T06:38:44.923Z,12.40
2019-03-08T06:41:14.519Z,8.43
2019-03-08T06:43:43.929Z,12.93
2019-03-08T06:46:13.419Z,9.23
2019-03-08T06:48:42.908Z,10.23
2019-03-08T06:51:12.813Z,8.00
2019-03-08T06:53:42.362Z,10.17
2019-03-08T06:56:11.822Z,12.90
2019-03-08T06:58:42.985Z,7.13
2019-03-08T07:01:13.615Z,9.57
2019-03-08T07:03:42.845Z,7.43
2019-03-08T07:06:12.298Z,7.43
2019-03-08T07:08:41.839Z,5.80
2019-03-08T07:11:11.303Z,6.00
2019-03-08T07:13:41.627Z,6.00
2019-03-08T07:16:13.453Z,10.67
2019-03-08T07:18:42.290Z,5.30
2019-03-08T07:21:19.017Z,6.50
2019-03-08T07:23:58.803Z,10.23
2019-03-08T07:26:35.478Z,8.43
2019-03-08T07:29:09.373Z,15.90
2019-03-08T07:31:49.746Z,7.23
2019-03-08T07:34:20.685Z,6.20
2019-03-08T07:36:54.490Z,7.53
2019-03-08T07:39:40.438Z,5.87
2019-03-08T07:42:14.154Z,7.27
2019-03-08T07:44:45.428Z,9.17
2019-03-08T07:47:16.482Z,9.23
2019-03-08T07:49:50.334Z,6.63
2019-03-08T07:52:25.490Z,11.50
2019-03-08T07:55:05.416Z,5.80
2019-03-08T07:57:40.045Z,6.53
2019-03-08T08:00:31.371Z,7.90
2019-03-08T08:03:11.451Z,4.23
2019-03-08T08:05:42.606Z,12.47
2019-03-08T08:08:29.985Z,13.17
2019-03-08T08:11:03.826Z,10.53
2019-03-08T08:13:35.206Z,10.40
2019-03-08T08:16:21.289Z,8.17
2019-03-08T08:19:07.249Z,5.30
2019-03-08T08:21:54.585Z,6.70
2019-03-08T08:24:31.178Z,5.87
2019-03-08T08:27:18.321Z,9.03
2019-03-08T08:29:49.236Z,14.03
2019-03-08T08:32:36.600Z,6.83
2019-03-08T08:35:15.809Z,11.37
2019-03-08T08:37:46.731Z,9.67
2019-03-08T08:40:29.446Z,8.47
2019-03-08T08:43:16.677Z,4.90
2019-03-08T08:45:47.735Z,9.30
2019-03-08T08:48:24.374Z,9.80
2019-03-08T08:50:55.352Z,9.83
2019-03-08T08:53:35.274Z,8.17
2019-03-08T08:56:06.439Z,10.73
2019-03-08T08:58:37.303Z,10.27
2019-03-08T09:01:14.277Z,8.17
2019-03-08T09:04:01.294Z,11.87
2019-03-08T09:06:36.442Z,11.07
2019-03-08T09:09:19.778Z,9.83
2019-03-08T09:11:52.901Z,15.97
2019-03-08T09:14:39.164Z,12.87
2019-03-08T09:17:22.429Z,8.07
2019-03-08T09:20:12.559Z,8.50
2019-03-08T09:22:53.220Z,7.40
2019-03-08T09:25:24.200Z,7.07
2019-03-08T09:27:55.339Z,9.80
2019-03-08T09:30:32.460Z,7.43
2019-03-08T09:33:12.608Z,7.97
2019-03-08T09:36:02.941Z,6.87
2019-03-08T09:38:48.862Z,5.53
2019-03-08T09:41:27.695Z,7.90
2019-03-08T09:43:59.979Z,23.83
2019-03-08T09:46:31.375Z,10.47
2019-03-08T09:49:02.274Z,5.47
2019-03-08T09:51:33.458Z,6.65
2019-03-08T09:54:07.265Z,6.57
2019-03-08T09:56:40.723Z,4.07
2019-03-08T09:59:11.863Z,7.63
2019-03-08T10:01:42.883Z,11.07
2019-03-08T10:04:16.485Z,3.93
2019-03-08T10:06:50.558Z,9.10
2019-03-08T10:09:27.591Z,6.13
2019-03-08T10:12:10.380Z,8.97
2019-03-08T10:14:50.973Z,7.73
2019-03-08T10:17:22.073Z,8.87
2019-03-08T10:19:55.882Z,4.83
2019-03-08T10:22:33.823Z,17.93
2019-03-08T10:25:11.904Z,5.40
2019-03-08T10:27:43.034Z,10.23
2019-03-08T10:30:21.526Z,6.13
2019-03-08T10:32:58.507Z,4.07
2019-03-08T10:35:50.168Z,7.50
2019-03-08T10:38:22.947Z,3.50
2019-03-08T10:40:59.387Z,4.97
2019-03-08T10:43:30.364Z,11.30
2019-03-08T10:46:17.813Z,6.60
2019-03-08T10:48:48.712Z,4.73
2019-03-08T10:51:36.420Z,8.80
2019-03-08T10:54:19.779Z,11.97
2019-03-08T10:56:53.351Z,6.83
2019-03-08T10:59:31.455Z,6.40
2019-03-08T11:02:05.061Z,6.77
2019-03-08T11:04:41.979Z,9.63
2019-03-08T11:07:24.790Z,10.87
2019-03-08T11:09:55.751Z,9.07
2019-03-08T11:12:44.894Z,7.53
2019-03-08T11:15:24.224Z,3.77
2019-03-08T11:18:05.141Z,4.87
2019-03-08T11:20:36.115Z,10.20
2019-03-08T11:23:07.026Z,5.10
2019-03-08T11:25:43.590Z,11.10
2019-03-08T11:28:20.932Z,3.27
2019-03-08T11:30:54.134Z,5.53
2019-03-08T11:33:37.464Z,9.27
2019-03-08T11:36:11.140Z,6.60
2019-03-08T11:38:42.012Z,4.97
2019-03-08T11:41:25.134Z,6.67
2019-03-08T11:43:56.454Z,9.57
2019-03-08T11:46:36.634Z,15.23
2019-03-08T11:49:22.264Z,10.67
2019-03-08T11:51:59.396Z,10.03
2019-03-08T11:54:41.960Z,8.60
2019-03-08T11:57:18.851Z,11.00
2019-03-08T11:59:49.933Z,10.70
2019-03-08T12:02:37.609Z,5.33
2019-03-08T12:05:17.701Z,8.87
2019-03-08T12:07:51.554Z,11.23
2019-03-08T12:10:34.696Z,11.23
2019-03-08T12:13:08.475Z,9.20
2019-03-08T12:15:42.472Z,6.20
2019-03-08T12:18:13.845Z,10.40
2019-03-08T12:20:56.637Z,5.83
2019-03-08T12:23:27.908Z,10.10
2019-03-08T12:26:04.909Z,9.90
2019-03-08T12:28:53.588Z,9.87
2019-03-08T12:31:24.679Z,8.73
2019-03-08T12:34:11.842Z,4.70
2019-03-08T12:36:45.959Z,8.50
2019-03-08T12:39:20.081Z,9.77
2019-03-08T12:41:57.072Z,5.77
2019-03-08T12:44:31.304Z,8.67
2019-03-08T12:47:02.263Z,10.37
2019-03-08T12:49:40.179Z,7.50
2019-03-08T12:52:11.030Z,7.80
2019-03-08T12:54:57.117Z,7.57
2019-03-08T12:57:44.311Z,11.33
2019-03-08T13:00:35.643Z,9.37
2019-03-08T13:03:09.556Z,4.47
2019-03-08T13:05:52.604Z,7.10
2019-03-08T13:08:32.230Z,10.87
2019-03-08T13:11:01.569Z,7.13
2019-03-08T13:13:31.164Z,9.87
2019-03-08T13:16:00.620Z,13.67
2019-03-08T13:18:30.510Z,9.00
2019-03-08T13:20:59.954Z,6.00
2019-03-08T13:23:29.138Z,6.97
2019-03-08T13:25:58.786Z,8.43
2019-03-08T13:28:28.189Z,11.00
2019-03-08T13:30:57.582Z,8.38
2019-03-08T13:33:27.108Z,7.13
2019-03-08T13:35:56.603Z,7.10
2019-03-08T13:38:26.106Z,11.10
2019-03-08T13:40:56.004Z,5.07
2019-03-08T13:43:25.617Z,9.50
2019-03-08T13:45:55.549Z,7.27
2019-03-08T13:48:25.377Z,15.00
2019-03-08T13:50:54.871Z,7.30
2019-03-08T13:53:24.361Z,11.93
2019-03-08T13:55:53.922Z,9.10
2019-03-08T13:58:23.390Z,9.70
2019-03-08T14:00:52.923Z,6.97
2019-03-08T14:03:22.435Z,11.70
2019-03-08T14:05:51.671Z,6.13
2019-03-08T14:08:20.999Z,5.50
2019-03-08T14:10:50.517Z,6.77
2019-03-08T14:13:20.395Z,9.83
2019-03-08T14:15:49.915Z,10.03
2019-03-08T14:18:19.446Z,10.20
2019-03-08T14:20:48.908Z,5.73
2019-03-08T14:23:18.430Z,12.10
2019-03-08T14:25:52.117Z,8.17
2019-03-08T14:28:28.867Z,17.03
2019-03-08T14:31:00.230Z,12.53
2019-03-08T14:33:29.559Z,8.30
2019-03-08T14:35:59.207Z,14.93
2019-03-08T14:38:32.901Z,8.03
2019-03-08T14:41:16.451Z,7.67
2019-03-08T14:43:53.868Z,9.30
2019-03-08T14:46:31.974Z,12.10
2019-03-08T14:49:02.273Z,11.57
2019-03-08T14:51:31.931Z,9.73
2019-03-08T14:54:01.244Z,7.17
2019-03-08T14:56:31.813Z,7.30
2019-03-08T14:59:01.913Z,6.03
2019-03-08T15:01:32.269Z,6.13
2019-03-08T15:04:07.492Z,8.67
2019-03-08T15:06:36.874Z,8.43
2019-03-08T15:09:09.182Z,7.07
2019-03-08T15:11:39.677Z,9.80
2019-03-08T15:14:09.189Z,9.07
2019-03-08T15:16:39.396Z,10.23
2019-03-08T15:19:10.214Z,9.57
2019-03-08T15:21:48.449Z,14.33
2019-03-08T15:24:11.283Z,13.70
2019-03-08T15:26:40.825Z,9.73
2019-03-08T15:29:10.286Z,8.27
2019-03-08T15:31:39.791Z,9.30
2019-03-08T15:34:09.736Z,10.50
2019-03-08T15:36:39.226Z,4.60
2019-03-08T15:39:08.869Z,12.80
2019-03-08T15:41:38.248Z,6.77
2019-03-08T15:44:08.563Z,10.37
2019-03-08T15:46:38.183Z,15.77
2019-03-08T15:49:08.417Z,16.50
2019-03-08T15:51:37.890Z,9.30
2019-03-08T15:54:07.372Z,7.63
2019-03-08T15:56:36.698Z,12.53
2019-03-08T15:59:06.518Z,12.83
2019-03-08T16:01:35.927Z,6.17
2019-03-08T16:04:08.133Z,14.97
2019-03-08T16:06:39.968Z,8.97
2019-03-08T16:09:08.656Z,7.40
2019-03-08T16:11:46.270Z,11.87
2019-03-08T16:14:16.537Z,10.93
2019-03-08T16:16:46.879Z,12.37
2019-03-08T16:19:16.511Z,6.47
2019-03-08T16:21:50.548Z,13.27
2019-03-08T16:24:21.618Z,13.33
2019-03-08T16:26:51.413Z,9.27
2019-03-08T16:29:20.836Z,11.00
2019-03-08T16:32:03.688Z,11.57
2019-03-08T16:34:33.115Z,5.87
2019-03-08T16:37:10.043Z,12.93
2019-03-08T16:39:46.750Z,12.20
2019-03-08T16:42:20.568Z,16.97
2019-03-08T16:44:54.323Z,15.03
2019-03-08T16:47:28.849Z,14.27
2019-03-08T16:50:03.555Z,14.47
2019-03-08T16:52:38.108Z,17.90
2019-03-08T16:55:22.857Z,20.03
2019-03-08T16:57:53.942Z,20.87
2019-03-08T17:00:27.751Z,14.70
2019-03-08T17:03:04.392Z,22.40
2019-03-08T17:05:50.469Z,15.27
2019-03-08T17:08:24.313Z,18.67
2019-03-08T17:11:11.097Z,19.20
2019-03-08T17:13:42.161Z,12.73
2019-03-08T17:16:29.741Z,10.40
2019-03-08T17:19:18.958Z,13.10
2019-03-08T17:22:00.117Z,12.50
2019-03-08T17:24:43.041Z,10.07
2019-03-08T17:27:14.036Z,13.60
2019-03-08T17:29:51.246Z,17.37
2019-03-08T17:32:34.342Z,14.73
2019-03-08T17:35:07.981Z,11.80
2019-03-08T17:37:54.351Z,11.77
2019-03-08T17:40:25.400Z,13.53
2019-03-08T17:43:11.651Z,7.40
2019-03-08T17:45:42.793Z,14.87
2019-03-08T17:48:25.410Z,8.90
2019-03-08T17:51:14.546Z,11.90
2019-03-08T17:53:45.701Z,9.57
2019-03-08T17:56:25.735Z,10.30
2019-03-08T17:58:56.673Z,7.17
2019-03-08T18:01:35.573Z,9.93
2019-03-08T18:04:06.810Z,13.30
2019-03-08T18:06:40.605Z,14.93
2019-03-08T18:09:11.527Z,11.23
2019-03-08T18:11:58.574Z,13.90
2019-03-08T18:14:48.007Z,13.00
2019-03-08T18:17:35.614Z,13.77
2019-03-08T18:20:09.627Z,15.33
2019-03-08T18:22:40.766Z,11.03
2019-03-08T18:25:12.043Z,11.43
2019-03-08T18:27:59.632Z,11.97
2019-03-08T18:30:30.954Z,8.40
2019-03-08T18:33:16.890Z,10.17
2019-03-08T18:35:50.855Z,11.73
2019-03-08T18:38:21.673Z,12.60
2019-03-08T18:41:04.480Z,10.30
2019-03-08T18:43:44.271Z,12.07
2019-03-08T18:46:31.730Z,13.77
2019-03-08T18:49:03.107Z,12.70
2019-03-08T18:51:37.064Z,12.87
2019-03-08T18:54:10.986Z,12.23
2019-03-08T18:56:57.802Z,18.77
2019-03-08T18:59:34.901Z,12.60
2019-03-08T19:02:15.088Z,14.30
2019-03-08T19:04:46.140Z,16.80
2019-03-08T19:07:26.865Z,9.57
2019-03-08T19:09:57.780Z,10.37
2019-03-08T19:12:28.873Z,14.17
2019-03-08T19:15:08.034Z,17.13
2019-03-08T19:17:38.912Z,16.60
2019-03-08T19:20:20.563Z,14.10
2019-03-08T19:23:01.873Z,15.20
2019-03-08T19:25:46.715Z,16.20
2019-03-08T19:28:24.027Z,16.67
2019-03-08T19:31:11.814Z,17.47
2019-03-08T19:33:58.936Z,19.53
2019-03-08T19:36:31.033Z,13.73
2019-03-08T19:39:07.979Z,17.37
2019-03-08T19:41:41.911Z,17.63
2019-03-08T19:44:29.304Z,16.07
2019-03-08T19:47:06.358Z,13.53
2019-03-08T19:49:43.075Z,16.57
2019-03-08T19:52:16.634Z,22.50
2019-03-08T19:54:50.028Z,16.90
2019-03-08T19:57:33.616Z,17.60
2019-03-08T20:00:10.461Z,19.13
2019-03-08T20:02:42.814Z,17.13
2019-03-08T20:05:43.242Z,21.87
2019-03-08T20:08:10.696Z,27.30
2019-03-08T20:10:57.631Z,24.53
2019-03-08T20:13:46.881Z,20.53
2019-03-08T20:16:26.837Z,16.27
2019-03-08T20:18:58.160Z,24.97
2019-03-08T20:21:29.098Z,22.70
2019-03-08T20:24:17.990Z,17.80
2019-03-08T20:26:52.315Z,21.07
2019-03-08T20:29:38.276Z,14.93
2019-03-08T20:32:24.547Z,25.23
2019-03-08T20:34:55.659Z,21.57
2019-03-08T20:37:32.761Z,24.13
2019-03-08T20:40:06.505Z,18.57
2019-03-08T20:42:40.015Z,18.20
2019-03-08T20:45:24.474Z,15.57
2019-03-08T20:47:54.347Z,18.57
2019-03-08T20:50:23.812Z,21.03
2019-03-08T20:52:53.332Z,17.43
2019-03-08T20:55:22.807Z,24.63
2019-03-08T20:57:52.287Z,20.20
2019-03-08T21:00:21.552Z,20.50
2019-03-08T21:02:51.031Z,18.00
2019-03-08T21:05:20.482Z,25.23
2019-03-08T21:07:52.102Z,19.37
2019-03-08T21:10:21.539Z,20.57
2019-03-08T21:12:50.964Z,21.07
2019-03-08T21:15:25.417Z,16.97
2019-03-08T21:17:51.632Z,20.90
2019-03-08T21:20:21.137Z,21.13
2019-03-08T21:22:50.671Z,14.77
2019-03-08T21:25:20.134Z,19.90
2019-03-08T21:27:49.307Z,15.60
2019-03-08T21:30:20.399Z,19.27
2019-03-08T21:32:49.970Z,23.53
2019-03-08T21:35:19.528Z,19.53
2019-03-08T21:37:50.968Z,21.73
2019-03-08T21:40:20.446Z,15.97
2019-03-08T21:42:50.092Z,18.23
2019-03-08T21:45:20.365Z,20.97
2019-03-08T21:47:49.839Z,25.00
2019-03-08T21:50:19.370Z,26.63
2019-03-08T21:52:50.864Z,17.10
2019-03-08T21:55:21.978Z,23.47
2019-03-08T21:57:51.644Z,17.63
2019-03-08T22:00:25.964Z,20.07
2019-03-08T22:02:55.415Z,27.23
2019-03-08T22:05:29.725Z,20.13
2019-03-08T22:08:00.885Z,18.57
2019-03-08T22:10:32.204Z,23.33
2019-03-08T22:13:01.652Z,21.20
2019-03-08T22:15:31.364Z,19.67
2019-03-08T22:18:00.623Z,17.03
2019-03-08T22:20:29.821Z,19.73
2019-03-08T22:23:01.417Z,22.57
2019-03-08T22:25:30.810Z,27.97
2019-03-08T22:28:00.335Z,24.27
2019-03-08T22:30:30.012Z,15.57
2019-03-08T22:32:59.500Z,22.13
2019-03-08T22:35:29.144Z,21.70
2019-03-08T22:37:58.378Z,24.00
2019-03-08T22:40:27.817Z,24.47
2019-03-08T22:42:57.368Z,20.77
2019-03-08T22:45:26.844Z,24.53
2019-03-08T22:47:56.395Z,24.70
2019-03-08T22:50:28.906Z,26.47
2019-03-08T22:53:00.765Z,21.60
2019-03-08T22:55:30.571Z,20.23
2019-03-08T22:58:00.111Z,25.20
2019-03-08T23:00:46.964Z,24.40
2019-03-08T23:03:16.348Z,31.17
2019-03-08T23:05:46.018Z,25.83
2019-03-08T23:08:15.323Z,24.93
2019-03-08T23:10:45.395Z,25.03
2019-03-08T23:13:14.639Z,23.90
2019-03-08T23:15:43.873Z,25.60
2019-03-08T23:18:13.385Z,27.87
2019-03-08T23:20:42.995Z,28.07
2019-03-08T23:23:13.664Z,26.93
2019-03-08T23:25:43.270Z,29.07
2019-03-08T23:28:22.977Z,24.33
2019-03-08T23:30:54.060Z,30.57
2019-03-08T23:33:24.710Z,25.93
2019-03-08T23:35:54.240Z,25.67
2019-03-08T23:38:23.772Z,29.10
2019-03-08T23:40:58.966Z,25.23
2019-03-08T23:43:30.642Z,30.57
2019-03-08T23:46:00.024Z,25.73
2019-03-08T23:48:29.521Z,26.63
2019-03-08T23:51:01.134Z,31.40
2019-03-08T23:53:30.591Z,24.97
2019-03-08T23:56:00.157Z,30.30
2019-03-08T23:58:29.636Z,27.17
